createdAt,value
2018-03-20T00:00:14.083Z,-0.36
2018-03-20T00:01:14.128Z,-0.37
2018-03-20T00:02:14.093Z,-0.42
2018-03-20T00:03:14.099Z,-0.44
2018-03-20T00:04:14.110Z,-0.46
2018-03-20T00:05:14.138Z,-0.57
2018-03-20T00:06:14.141Z,-0.55
2018-03-20T00:07:14.100Z,-0.52
2018-03-20T00:08:14.128Z,-0.55
2018-03-20T00:09:14.132Z,-0.55
2018-03-20T00:10:14.118Z,-0.52
2018-03-20T00:11:14.405Z,-0.58
2018-03-20T00:12:14.151Z,-0.55
2018-03-20T00:13:14.147Z,-0.53
2018-03-20T00:14:14.131Z,-0.62
2018-03-20T00:15:14.146Z,-0.7
2018-03-20T00:16:14.181Z,-0.68
2018-03-20T00:17:14.127Z,-0.75
2018-03-20T00:18:14.145Z,-0.84
2018-03-20T00:19:14.143Z,-0.78
2018-03-20T00:20:14.143Z,-0.79
2018-03-20T00:21:14.204Z,-0.83
2018-03-20T00:22:14.143Z,-0.82
2018-03-20T00:23:14.172Z,-0.78
2018-03-20T00:24:14.142Z,-0.77
2018-03-20T00:25:14.148Z,-0.75
2018-03-20T00:26:14.194Z,-0.73
2018-03-20T00:27:14.284Z,-0.73
2018-03-20T00:28:14.149Z,-0.71
2018-03-20T00:29:14.177Z,-0.7
2018-03-20T00:30:14.223Z,-0.67
2018-03-20T00:31:14.175Z,-0.65
2018-03-20T00:32:14.191Z,-0.67
2018-03-20T00:33:14.231Z,-0.67
2018-03-20T00:34:14.180Z,-0.66
2018-03-20T00:35:14.187Z,-0.62
2018-03-20T00:36:14.241Z,-0.61
2018-03-20T00:37:14.226Z,-0.61
2018-03-20T00:38:14.202Z,-0.6
2018-03-20T00:39:14.214Z,-0.6
2018-03-20T00:40:14.182Z,-0.59
2018-03-20T00:41:14.206Z,-0.62
2018-03-20T00:42:14.192Z,-0.64
2018-03-20T00:43:14.209Z,-0.64
2018-03-20T00:44:14.230Z,-0.66
2018-03-20T00:45:14.201Z,-0.62
2018-03-20T00:46:14.381Z,-0.61
2018-03-20T00:47:14.219Z,-0.58
2018-03-20T00:48:14.219Z,-0.61
2018-03-20T00:49:14.261Z,-0.61
2018-03-20T00:50:14.260Z,-0.57
2018-03-20T00:51:14.281Z,-0.56
2018-03-20T00:52:14.223Z,-0.55
2018-03-20T00:53:14.226Z,-0.53
2018-03-20T00:54:14.269Z,-0.53
2018-03-20T00:55:14.242Z,-0.5
2018-03-20T00:56:14.246Z,-0.46
2018-03-20T00:57:14.262Z,-0.5
2018-03-20T00:58:14.259Z,-0.5
2018-03-20T00:59:14.250Z,-0.49
2018-03-20T01:00:14.246Z,-0.48
2018-03-20T01:01:14.290Z,-0.48
2018-03-20T01:02:14.267Z,-0.48
2018-03-20T01:03:14.258Z,-0.51
2018-03-20T01:04:14.273Z,-0.49
2018-03-20T01:05:14.257Z,-0.57
2018-03-20T01:06:14.304Z,-0.57
2018-03-20T01:07:14.279Z,-0.6
2018-03-20T01:08:14.292Z,-0.59
2018-03-20T01:09:14.319Z,-0.63
2018-03-20T01:10:14.309Z,-0.61
2018-03-20T01:11:14.285Z,-0.63
2018-03-20T01:12:14.287Z,-0.64
2018-03-20T01:13:14.305Z,-0.64
2018-03-20T01:14:14.297Z,-0.65
2018-03-20T01:15:14.301Z,-0.66
2018-03-20T01:16:14.294Z,-0.68
2018-03-20T01:17:14.325Z,-0.89
2018-03-20T01:18:14.317Z,-0.9
2018-03-20T01:19:14.319Z,-0.89
2018-03-20T01:20:14.317Z,-0.89
2018-03-20T01:21:14.322Z,-0.93
2018-03-20T01:22:14.502Z,-0.95
2018-03-20T01:23:14.393Z,-0.96
2018-03-20T01:24:14.342Z,-0.95
2018-03-20T01:25:14.735Z,-0.95
2018-03-20T01:26:14.349Z,-0.95
2018-03-20T01:27:14.361Z,-0.95
2018-03-20T01:28:14.330Z,-0.95
2018-03-20T01:29:14.331Z,-0.92
2018-03-20T01:30:14.336Z,-0.93
2018-03-20T01:31:14.341Z,-0.9
2018-03-20T01:32:14.349Z,-0.9
2018-03-20T01:33:14.354Z,-0.9
2018-03-20T01:34:14.400Z,-0.9
2018-03-20T01:35:14.367Z,-0.9
2018-03-20T01:36:14.375Z,-0.92
2018-03-20T01:37:14.382Z,-0.89
2018-03-20T01:38:14.356Z,-0.9
2018-03-20T01:39:14.377Z,-0.86
2018-03-20T01:40:14.369Z,-0.85
2018-03-20T01:41:14.372Z,-0.88
2018-03-20T01:42:14.421Z,-0.84
2018-03-20T01:43:14.408Z,-0.88
2018-03-20T01:44:14.392Z,-0.91
2018-03-20T01:45:14.402Z,-0.89
2018-03-20T01:46:14.452Z,-0.89
2018-03-20T01:47:14.428Z,-0.88
2018-03-20T01:48:14.419Z,-0.89
2018-03-20T01:49:14.390Z,-0.89
2018-03-20T01:50:14.415Z,-0.9
2018-03-20T01:51:14.456Z,-0.92
2018-03-20T01:52:14.449Z,-0.97
2018-03-20T01:53:14.446Z,-1.03
2018-03-20T01:54:14.525Z,-1.09
2018-03-20T01:55:14.463Z,-1.08
2018-03-20T01:56:14.492Z,-1.08
2018-03-20T01:57:14.488Z,-1.07
2018-03-20T01:58:14.483Z,-1.07
2018-03-20T01:59:14.439Z,-1.07
2018-03-20T02:00:14.486Z,-1.07
2018-03-20T02:01:14.461Z,-1.03
2018-03-20T02:02:14.464Z,-1.04
2018-03-20T02:03:14.483Z,-1.03
2018-03-20T02:04:14.521Z,-1.06
2018-03-20T02:05:14.433Z,-1.03
2018-03-20T02:06:14.447Z,-1.05
2018-03-20T02:07:14.465Z,-1.02
2018-03-20T02:08:14.542Z,-1.01
2018-03-20T02:09:14.605Z,-1.05
2018-03-20T02:10:14.492Z,-1.09
2018-03-20T02:11:14.493Z,-1.17
2018-03-20T02:12:14.518Z,-1.16
2018-03-20T02:13:14.522Z,-1.19
2018-03-20T02:14:14.910Z,-1.21
2018-03-20T02:15:14.496Z,-1.23
2018-03-20T02:16:14.480Z,-1.25
2018-03-20T02:17:14.639Z,-1.26
2018-03-20T02:18:14.488Z,-1.25
2018-03-20T02:19:14.516Z,-1.26
2018-03-20T02:20:14.501Z,-1.26
2018-03-20T02:21:14.495Z,-1.27
2018-03-20T02:22:14.531Z,-1.27
2018-03-20T02:23:14.544Z,-1.24
2018-03-20T02:24:14.526Z,-1.26
2018-03-20T02:25:14.523Z,-1.26
2018-03-20T02:26:14.498Z,-1.25
2018-03-20T02:27:14.531Z,-1.24
2018-03-20T02:28:14.509Z,-1.46
2018-03-20T02:29:14.504Z,-1.43
2018-03-20T02:30:14.530Z,-1.4
2018-03-20T02:31:14.546Z,-1.36
2018-03-20T02:32:14.602Z,-1.37
2018-03-20T02:33:14.531Z,-1.42
2018-03-20T02:34:14.597Z,-1.52
2018-03-20T02:35:14.538Z,-1.5
2018-03-20T02:36:14.552Z,-1.53
2018-03-20T02:37:14.560Z,-1.62
2018-03-20T02:38:14.610Z,-1.6
2018-03-20T02:39:14.568Z,-1.61
2018-03-20T02:40:14.558Z,-1.59
2018-03-20T02:41:14.564Z,-1.6
2018-03-20T02:42:14.556Z,-1.57
2018-03-20T02:43:14.581Z,-1.57
2018-03-20T02:44:14.569Z,-1.6
2018-03-20T02:45:14.550Z,-1.57
2018-03-20T02:46:14.563Z,-1.57
2018-03-20T02:47:14.586Z,-1.58
2018-03-20T02:48:14.568Z,-1.57
2018-03-20T02:49:14.587Z,-1.57
2018-03-20T02:50:14.615Z,-1.57
2018-03-20T02:51:14.682Z,-1.56
2018-03-20T02:52:14.576Z,-1.58
2018-03-20T02:53:14.629Z,-1.56
2018-03-20T02:54:14.632Z,-1.55
2018-03-20T02:55:14.617Z,-1.56
2018-03-20T02:56:14.652Z,-1.54
2018-03-20T02:57:14.620Z,-1.53
2018-03-20T02:58:14.607Z,-1.51
2018-03-20T02:59:14.622Z,-1.51
2018-03-20T03:00:14.607Z,-1.53
2018-03-20T03:01:14.653Z,-1.53
2018-03-20T03:02:14.616Z,-1.57
2018-03-20T03:03:14.601Z,-1.57
2018-03-20T03:04:14.636Z,-1.57
2018-03-20T03:05:14.632Z,-1.6
2018-03-20T03:06:14.625Z,-1.61
2018-03-20T03:07:14.604Z,-1.61
2018-03-20T03:08:14.630Z,-1.58
2018-03-20T03:09:14.669Z,-1.63
2018-03-20T03:10:14.657Z,-1.65
2018-03-20T03:11:14.623Z,-1.7
2018-03-20T03:12:14.663Z,-1.75
2018-03-20T03:13:14.650Z,-1.85
2018-03-20T03:14:14.694Z,-2.03
2018-03-20T03:15:14.632Z,-2.15
2018-03-20T03:16:14.670Z,-2.12
2018-03-20T03:17:14.670Z,-2.09
2018-03-20T03:18:14.648Z,-2.19
2018-03-20T03:19:14.656Z,-2.16
2018-03-20T03:20:14.697Z,-2.13
2018-03-20T03:21:14.663Z,-2.13
2018-03-20T03:22:14.697Z,-2.15
2018-03-20T03:23:14.707Z,-2.11
2018-03-20T03:24:14.668Z,-2.1
2018-03-20T03:25:14.672Z,-2.08
2018-03-20T03:26:14.751Z,-2.06
2018-03-20T03:27:14.680Z,-2.06
2018-03-20T03:28:14.798Z,-2.06
2018-03-20T03:29:14.703Z,-2.05
2018-03-20T03:30:14.728Z,-2.03
2018-03-20T03:31:14.729Z,-2.03
2018-03-20T03:32:14.722Z,-2.04
2018-03-20T03:33:14.719Z,-2.06
2018-03-20T03:34:14.724Z,-2.06
2018-03-20T03:35:14.714Z,-2.07
2018-03-20T03:36:14.727Z,-2.07
2018-03-20T03:37:14.702Z,-2.07
2018-03-20T03:38:14.973Z,-2.07
2018-03-20T03:39:14.745Z,-2.14
2018-03-20T03:40:14.709Z,-2.22
2018-03-20T03:41:14.721Z,-2.21
2018-03-20T03:42:14.754Z,-2.26
2018-03-20T03:43:14.780Z,-2.24
2018-03-20T03:44:14.746Z,-2.33
2018-03-20T03:45:14.742Z,-2.32
2018-03-20T03:46:14.743Z,-2.37
2018-03-20T03:47:14.736Z,-2.36
2018-03-20T03:48:14.782Z,-2.35
2018-03-20T03:49:14.758Z,-2.33
2018-03-20T03:50:14.761Z,-2.35
2018-03-20T03:51:14.794Z,-2.35
2018-03-20T03:52:14.761Z,-2.35
2018-03-20T03:53:14.773Z,-2.35
2018-03-20T03:54:14.738Z,-2.32
2018-03-20T03:55:14.751Z,-2.33
2018-03-20T03:56:14.784Z,-2.31
2018-03-20T03:57:14.872Z,-2.31
2018-03-20T03:58:14.752Z,-2.3
2018-03-20T03:59:14.796Z,-2.3
2018-03-20T04:00:14.796Z,-2.32
2018-03-20T04:01:14.967Z,-2.31
2018-03-20T04:02:14.784Z,-2.3
2018-03-20T04:03:14.798Z,-2.3
2018-03-20T04:04:14.850Z,-2.27
2018-03-20T04:05:14.786Z,-2.27
2018-03-20T04:06:14.809Z,-2.27
2018-03-20T04:07:14.814Z,-2.26
2018-03-20T04:08:14.823Z,-2.23
2018-03-20T04:09:14.818Z,-2.25
2018-03-20T04:10:14.836Z,-2.25
2018-03-20T04:11:14.793Z,-2.27
2018-03-20T04:12:14.798Z,-2.27
2018-03-20T04:13:14.831Z,-2.29
2018-03-20T04:14:14.812Z,-2.27
2018-03-20T04:15:14.855Z,-2.28
2018-03-20T04:16:14.811Z,-2.27
2018-03-20T04:17:14.826Z,-2.27
2018-03-20T04:18:15.184Z,-2.35
2018-03-20T04:19:14.834Z,-2.34
2018-03-20T04:20:14.847Z,-2.42
2018-03-20T04:21:14.868Z,-2.5
2018-03-20T04:22:14.860Z,-2.61
2018-03-20T04:23:14.862Z,-2.73
2018-03-20T04:24:14.849Z,-2.87
2018-03-20T04:25:14.935Z,-2.95
2018-03-20T04:26:14.858Z,-2.98
2018-03-20T04:27:14.849Z,-3.02
2018-03-20T04:28:14.872Z,-3.09
2018-03-20T04:29:14.901Z,-3.09
2018-03-20T04:30:14.883Z,-3.13
2018-03-20T04:31:14.872Z,-3.11
2018-03-20T04:32:14.894Z,-3.13
2018-03-20T04:33:14.923Z,-3.13
2018-03-20T04:34:14.924Z,-3.21
2018-03-20T04:35:14.917Z,-3.12
2018-03-20T04:36:14.913Z,-3.1
2018-03-20T04:37:14.897Z,-3.04
2018-03-20T04:38:14.932Z,-3.04
2018-03-20T04:39:14.931Z,-3.05
2018-03-20T04:40:14.937Z,-3.08
2018-03-20T04:41:14.939Z,-3.04
2018-03-20T04:42:14.955Z,-2.98
2018-03-20T04:43:14.968Z,-2.93
2018-03-20T04:44:14.932Z,-2.9
2018-03-20T04:45:14.975Z,-2.88
2018-03-20T04:46:14.966Z,-2.89
2018-03-20T04:47:14.961Z,-2.87
2018-03-20T04:48:15.027Z,-2.83
2018-03-20T04:49:14.967Z,-2.81
2018-03-20T04:50:15.013Z,-2.78
2018-03-20T04:51:14.977Z,-2.87
2018-03-20T04:52:14.984Z,-2.82
2018-03-20T04:53:14.979Z,-2.78
2018-03-20T04:54:14.986Z,-2.78
2018-03-20T04:55:14.999Z,-2.76
2018-03-20T04:56:15.015Z,-2.76
2018-03-20T04:57:15.037Z,-2.72
2018-03-20T04:58:14.981Z,-2.71
2018-03-20T04:59:15.400Z,-2.72
2018-03-20T05:00:15.017Z,-2.74
2018-03-20T05:01:15.014Z,-2.7
2018-03-20T05:02:14.989Z,-2.69
2018-03-20T05:03:15.024Z,-2.69
2018-03-20T05:04:15.024Z,-2.78
2018-03-20T05:05:15.009Z,-2.74
2018-03-20T05:06:15.027Z,-2.77
2018-03-20T05:07:15.054Z,-2.75
2018-03-20T05:08:15.020Z,-2.74
2018-03-20T05:09:15.038Z,-2.7
2018-03-20T05:10:15.048Z,-2.68
2018-03-20T05:11:15.087Z,-2.66
2018-03-20T05:12:15.398Z,-2.68
2018-03-20T05:13:15.037Z,-2.65
2018-03-20T05:14:15.067Z,-2.64
2018-03-20T05:15:15.043Z,-2.63
2018-03-20T05:16:15.076Z,-2.65
2018-03-20T05:17:15.050Z,-2.64
2018-03-20T05:18:15.075Z,-2.63
2018-03-20T05:19:15.054Z,-2.6
2018-03-20T05:20:15.068Z,-2.6
2018-03-20T05:21:15.130Z,-2.6
2018-03-20T05:22:15.106Z,-2.6
2018-03-20T05:23:15.069Z,-2.62
2018-03-20T05:24:15.093Z,-2.62
2018-03-20T05:25:15.084Z,-2.59
2018-03-20T05:26:15.078Z,-2.6
2018-03-20T05:27:15.115Z,-2.58
2018-03-20T05:28:15.090Z,-2.57
2018-03-20T05:29:15.092Z,-2.58
2018-03-20T05:30:15.104Z,-2.59
2018-03-20T05:31:15.087Z,-2.58
2018-03-20T05:32:15.124Z,-2.57
2018-03-20T05:33:15.117Z,-2.57
2018-03-20T05:34:15.131Z,-2.57
2018-03-20T05:35:15.132Z,-2.6
2018-03-20T05:36:15.131Z,-2.57
2018-03-20T05:37:15.137Z,-2.54
2018-03-20T05:38:15.129Z,-2.53
2018-03-20T05:39:15.154Z,-2.52
2018-03-20T05:40:15.167Z,-2.49
2018-03-20T05:41:15.121Z,-2.52
2018-03-20T05:42:15.125Z,-2.53
2018-03-20T05:43:15.167Z,-2.54
2018-03-20T05:44:15.158Z,-2.54
2018-03-20T05:45:15.187Z,-2.54
2018-03-20T05:46:15.170Z,-2.52
2018-03-20T05:47:15.150Z,-2.51
2018-03-20T05:48:15.178Z,-2.5
2018-03-20T05:49:15.151Z,-2.47
2018-03-20T05:50:15.174Z,-2.46
2018-03-20T05:51:15.177Z,-2.46
2018-03-20T05:52:15.159Z,-2.46
2018-03-20T05:53:15.201Z,-2.45
2018-03-20T05:54:15.173Z,-2.42
2018-03-20T05:55:15.230Z,-2.42
2018-03-20T05:56:15.178Z,-2.42
2018-03-20T05:57:15.176Z,-2.44
2018-03-20T05:58:15.690Z,-2.42
2018-03-20T05:59:15.183Z,-2.43
2018-03-20T06:00:15.235Z,-2.41
2018-03-20T06:01:15.215Z,-2.4
2018-03-20T06:02:15.172Z,-2.4
2018-03-20T06:03:15.340Z,-2.39
2018-03-20T06:04:15.201Z,-2.36
2018-03-20T06:05:15.175Z,-2.38
2018-03-20T06:06:15.608Z,-2.35
2018-03-20T06:07:15.218Z,-2.36
2018-03-20T06:08:15.619Z,-2.33
2018-03-20T06:09:15.282Z,-2.34
2018-03-20T06:10:15.214Z,-2.34
2018-03-20T06:11:15.213Z,-2.34
2018-03-20T06:12:15.224Z,-2.33
2018-03-20T06:13:15.322Z,-2.36
2018-03-20T06:14:15.216Z,-2.33
2018-03-20T06:15:15.229Z,-2.34
2018-03-20T06:16:15.236Z,-2.33
2018-03-20T06:17:15.244Z,-2.3
2018-03-20T06:18:15.276Z,-2.32
2018-03-20T06:19:15.221Z,-2.32
2018-03-20T06:20:15.273Z,-2.29
2018-03-20T06:21:15.233Z,-2.25
2018-03-20T06:22:15.245Z,-2.27
2018-03-20T06:23:15.264Z,-2.27
2018-03-20T06:24:15.257Z,-2.26
2018-03-20T06:25:15.262Z,-2.22
2018-03-20T06:26:15.276Z,-2.22
2018-03-20T06:27:23.946Z,-2.22
2018-03-20T06:28:25.002Z,-2.22
2018-03-20T06:29:20.796Z,-2.2
2018-03-20T06:30:25.051Z,-2.2
2018-03-20T06:31:29.899Z,-2.18
2018-03-20T06:32:15.298Z,-2.17
2018-03-20T06:33:15.276Z,-2.16
2018-03-20T06:34:15.306Z,-2.15
2018-03-20T06:35:15.323Z,-2.11
2018-03-20T06:36:15.301Z,-2.11
2018-03-20T06:37:15.297Z,-2.08
2018-03-20T06:38:15.302Z,-2.09
2018-03-20T06:39:15.310Z,-2.06
2018-03-20T06:40:15.316Z,-2.04
2018-03-20T06:41:15.318Z,-2.06
2018-03-20T06:42:15.386Z,-2.04
2018-03-20T06:43:15.318Z,-2.01
2018-03-20T06:44:15.339Z,-2.02
2018-03-20T06:45:15.348Z,-2
2018-03-20T06:46:15.360Z,-1.99
2018-03-20T06:47:15.315Z,-1.99
2018-03-20T06:48:15.367Z,-1.98
2018-03-20T06:49:15.352Z,-1.98
2018-03-20T06:50:15.340Z,-1.98
2018-03-20T06:51:15.332Z,-1.97
2018-03-20T06:52:15.362Z,-1.98
2018-03-20T06:53:15.346Z,-1.97
2018-03-20T06:54:15.338Z,-1.96
2018-03-20T06:55:15.350Z,-1.94
2018-03-20T06:56:15.358Z,-1.99
2018-03-20T06:57:15.350Z,-1.97
2018-03-20T06:58:15.389Z,-1.96
2018-03-20T06:59:15.392Z,-1.97
2018-03-20T07:00:15.356Z,-1.99
2018-03-20T07:01:15.383Z,-1.98
2018-03-20T07:02:15.381Z,-1.97
2018-03-20T07:03:15.410Z,-1.95
2018-03-20T07:04:15.422Z,-1.92
2018-03-20T07:05:15.373Z,-1.91
2018-03-20T07:06:15.745Z,-1.9
2018-03-20T07:07:15.412Z,-1.9
2018-03-20T07:08:15.416Z,-1.85
2018-03-20T07:09:15.401Z,-1.84
2018-03-20T07:10:15.404Z,-1.83
2018-03-20T07:11:15.432Z,-1.78
2018-03-20T07:12:15.400Z,-1.77
2018-03-20T07:13:15.429Z,-1.76
2018-03-20T07:14:15.462Z,-1.72
2018-03-20T07:15:15.432Z,-1.71
2018-03-20T07:16:15.467Z,-1.68
2018-03-20T07:17:15.448Z,-1.66
2018-03-20T07:18:15.444Z,-1.67
2018-03-20T07:19:15.442Z,-1.65
2018-03-20T07:20:15.454Z,-1.65
2018-03-20T07:21:15.456Z,-1.63
2018-03-20T07:22:15.434Z,-1.63
2018-03-20T07:23:15.437Z,-1.65
2018-03-20T07:24:15.520Z,-1.62
2018-03-20T07:25:15.477Z,-1.62
2018-03-20T07:26:15.458Z,-1.66
2018-03-20T07:27:15.519Z,-1.69
2018-03-20T07:28:15.975Z,-1.67
2018-03-20T07:29:15.496Z,-1.7
2018-03-20T07:30:15.522Z,-1.66
2018-03-20T07:31:15.487Z,-1.65
2018-03-20T07:32:15.465Z,-1.61
2018-03-20T07:33:15.474Z,-1.63
2018-03-20T07:34:15.509Z,-1.59
2018-03-20T07:35:15.506Z,-1.58
2018-03-20T07:36:15.508Z,-1.56
2018-03-20T07:37:15.494Z,-1.54
2018-03-20T07:38:15.512Z,-1.52
2018-03-20T07:39:15.670Z,-1.48
2018-03-20T07:40:15.505Z,-1.46
2018-03-20T07:41:15.491Z,-1.41
2018-03-20T07:42:15.569Z,-1.41
2018-03-20T07:43:15.507Z,-1.4
2018-03-20T07:44:15.553Z,-1.35
2018-03-20T07:45:15.535Z,-1.31
2018-03-20T07:46:15.544Z,-1.28
2018-03-20T07:47:15.533Z,-1.24
2018-03-20T07:48:15.556Z,-1.2
2018-03-20T07:49:15.561Z,-1.17
2018-03-20T07:50:15.544Z,-1.14
2018-03-20T07:51:15.555Z,-1.11
2018-03-20T07:52:15.583Z,-1.09
2018-03-20T07:53:15.591Z,-1.08
2018-03-20T07:54:15.585Z,-1.02
2018-03-20T07:55:15.577Z,-1.02
2018-03-20T07:56:15.585Z,-1.01
2018-03-20T07:57:15.578Z,-0.99
2018-03-20T07:58:15.598Z,-0.97
2018-03-20T07:59:15.608Z,-0.93
2018-03-20T08:00:15.766Z,-0.88
2018-03-20T08:01:15.610Z,-0.83
2018-03-20T08:02:15.629Z,-0.81
2018-03-20T08:03:15.614Z,-0.76
2018-03-20T08:04:15.666Z,-0.71
2018-03-20T08:05:15.651Z,-0.71
2018-03-20T08:06:15.628Z,-0.67
2018-03-20T08:07:15.637Z,-0.7
2018-03-20T08:08:15.627Z,-0.66
2018-03-20T08:09:15.644Z,-0.64
2018-03-20T08:10:15.685Z,-0.61
2018-03-20T08:11:15.706Z,-0.56
2018-03-20T08:12:15.666Z,-0.52
2018-03-20T08:13:15.687Z,-0.5
2018-03-20T08:14:15.684Z,-0.52
2018-03-20T08:15:15.718Z,-0.57
2018-03-20T08:16:15.683Z,-0.58
2018-03-20T08:17:15.688Z,-0.6
2018-03-20T08:18:15.688Z,-0.58
2018-03-20T08:19:15.688Z,-0.61
2018-03-20T08:20:15.751Z,-0.57
2018-03-20T08:21:15.719Z,-0.56
2018-03-20T08:22:15.695Z,-0.5
2018-03-20T08:23:15.732Z,-0.46
2018-03-20T08:24:15.698Z,-0.4
2018-03-20T08:25:15.742Z,-0.39
2018-03-20T08:26:15.718Z,-0.35
2018-03-20T08:27:15.704Z,-0.32
2018-03-20T08:28:15.790Z,-0.27
2018-03-20T08:29:16.075Z,-0.19
2018-03-20T08:30:15.723Z,-0.17
2018-03-20T08:31:15.735Z,-0.13
2018-03-20T08:32:15.739Z,-0.1
2018-03-20T08:33:15.721Z,-0.06
2018-03-20T08:34:15.718Z,-0.03
2018-03-20T08:35:15.746Z,0.01
2018-03-20T08:36:15.776Z,0.01
2018-03-20T08:37:15.732Z,0.04
2018-03-20T08:38:15.810Z,0.06
2018-03-20T08:39:15.757Z,0.11
2018-03-20T08:40:15.791Z,0.11
2018-03-20T08:41:15.737Z,0.14
2018-03-20T08:42:15.744Z,0.16
2018-03-20T08:43:15.737Z,0.18
2018-03-20T08:44:15.740Z,0.21
2018-03-20T08:45:15.857Z,0.23
2018-03-20T08:46:15.786Z,0.24
2018-03-20T08:47:15.756Z,0.31
2018-03-20T08:48:15.742Z,0.35
2018-03-20T08:49:15.764Z,0.34
2018-03-20T08:50:15.799Z,0.28
2018-03-20T08:51:15.790Z,0.23
2018-03-20T08:52:15.773Z,0.29
2018-03-20T08:53:15.788Z,0.38
2018-03-20T08:54:15.780Z,0.42
2018-03-20T08:55:15.801Z,0.5
2018-03-20T08:56:15.916Z,0.54
2018-03-20T08:57:15.932Z,0.57
2018-03-20T08:58:15.785Z,0.61
2018-03-20T08:59:15.802Z,0.66
2018-03-20T09:00:15.965Z,0.62
2018-03-20T09:01:15.828Z,0.59
2018-03-20T09:02:15.834Z,0.56
2018-03-20T09:03:15.823Z,0.55
2018-03-20T09:04:15.871Z,0.54
2018-03-20T09:05:15.966Z,0.52
2018-03-20T09:06:15.862Z,0.42
2018-03-20T09:07:15.891Z,0.45
2018-03-20T09:08:15.847Z,0.46
2018-03-20T09:09:15.926Z,0.44
2018-03-20T09:10:15.902Z,0.44
2018-03-20T09:11:15.923Z,0.43
2018-03-20T09:12:15.944Z,0.48
2018-03-20T09:13:15.914Z,0.52
2018-03-20T09:14:15.944Z,0.52
2018-03-20T09:15:15.900Z,0.56
2018-03-20T09:16:16.136Z,0.57
2018-03-20T09:17:15.860Z,0.64
2018-03-20T09:18:15.850Z,0.7
2018-03-20T09:19:15.856Z,0.76
2018-03-20T09:20:15.875Z,0.78
2018-03-20T09:21:15.898Z,0.82
2018-03-20T09:22:15.884Z,0.85
2018-03-20T09:23:15.885Z,0.88
2018-03-20T09:24:15.887Z,0.88
2018-03-20T09:25:15.893Z,0.94
2018-03-20T09:26:15.918Z,0.95
2018-03-20T09:27:15.917Z,1.01
2018-03-20T09:28:15.890Z,1.04
2018-03-20T09:29:15.883Z,1.1
2018-03-20T09:30:15.889Z,1.19
2018-03-20T09:31:15.946Z,1.23
2018-03-20T09:32:15.907Z,1.17
2018-03-20T09:33:15.948Z,1.2
2018-03-20T09:34:15.920Z,1.26
2018-03-20T09:35:15.926Z,1.32
2018-03-20T09:36:15.935Z,1.41
2018-03-20T09:37:15.949Z,1.41
2018-03-20T09:38:15.935Z,1.43
2018-03-20T09:39:15.947Z,1.42
2018-03-20T09:40:15.941Z,1.45
2018-03-20T09:41:18.961Z,1.56
2018-03-20T09:42:15.973Z,1.57
2018-03-20T09:43:15.960Z,1.61
2018-03-20T09:44:16.006Z,1.55
2018-03-20T09:45:16.028Z,1.58
2018-03-20T09:46:15.956Z,1.58
2018-03-20T09:47:15.944Z,1.68
2018-03-20T09:48:15.946Z,1.62
2018-03-20T09:49:15.953Z,1.58
2018-03-20T09:50:16.129Z,1.57
2018-03-20T09:51:16.328Z,1.57
2018-03-20T09:52:15.965Z,1.63
2018-03-20T09:53:15.967Z,1.68
2018-03-20T09:54:16.067Z,1.71
2018-03-20T09:55:15.962Z,1.67
2018-03-20T09:56:16.013Z,1.6
2018-03-20T09:57:15.970Z,1.62
2018-03-20T09:58:15.965Z,1.66
2018-03-20T09:59:15.971Z,1.62
2018-03-20T10:00:17.007Z,1.65
2018-03-20T10:01:15.968Z,1.61
2018-03-20T10:02:15.972Z,1.61
2018-03-20T10:03:15.989Z,1.63
2018-03-20T10:04:15.965Z,1.63
2018-03-20T10:05:15.980Z,1.63
2018-03-20T10:06:15.998Z,1.66
2018-03-20T10:07:16.044Z,1.74
2018-03-20T10:08:15.982Z,1.77
2018-03-20T10:09:15.980Z,1.81
2018-03-20T10:10:15.996Z,1.8
2018-03-20T10:11:15.981Z,1.79
2018-03-20T10:12:16.133Z,1.87
2018-03-20T10:13:16.026Z,1.91
2018-03-20T10:14:16.023Z,1.97
2018-03-20T10:15:16.043Z,2.05
2018-03-20T10:16:16.043Z,2.09
2018-03-20T10:17:16.288Z,2.13
2018-03-20T10:18:16.021Z,2.17
2018-03-20T10:19:16.077Z,2.19
2018-03-20T10:20:16.844Z,2.22
2018-03-20T10:21:16.054Z,2.21
2018-03-20T10:22:16.051Z,2.29
2018-03-20T10:23:16.044Z,2.3
2018-03-20T10:24:16.066Z,2.31
2018-03-20T10:25:16.059Z,2.29
2018-03-20T10:26:16.412Z,2.18
2018-03-20T10:27:16.079Z,2.2
2018-03-20T10:28:16.089Z,2.22
2018-03-20T10:29:16.062Z,2.22
2018-03-20T10:30:16.057Z,2.21
2018-03-20T10:31:16.086Z,2.21
2018-03-20T10:32:16.053Z,2.25
2018-03-20T10:33:16.069Z,2.24
2018-03-20T10:34:16.076Z,2.2
2018-03-20T10:35:16.086Z,2.19
2018-03-20T10:36:16.093Z,2.19
2018-03-20T10:37:16.092Z,2.24
2018-03-20T10:38:16.121Z,2.26
2018-03-20T10:39:16.078Z,2.24
2018-03-20T10:40:16.095Z,2.13
2018-03-20T10:41:16.097Z,2.2
2018-03-20T10:42:16.118Z,2.32
2018-03-20T10:43:16.130Z,2.33
2018-03-20T10:44:16.096Z,2.36
2018-03-20T10:45:16.092Z,2.35
2018-03-20T10:46:16.071Z,2.38
2018-03-20T10:47:16.089Z,2.38
2018-03-20T10:48:16.133Z,2.38
2018-03-20T10:49:16.144Z,2.28
2018-03-20T10:50:16.107Z,2.23
2018-03-20T10:51:16.104Z,2.15
2018-03-20T10:52:16.124Z,2.1
2018-03-20T10:53:16.163Z,2.15
2018-03-20T10:54:16.114Z,2.26
2018-03-20T10:55:16.154Z,2.26
2018-03-20T10:56:16.130Z,2.26
2018-03-20T10:57:16.132Z,2.1
2018-03-20T10:58:16.248Z,2.05
2018-03-20T10:59:16.138Z,2.07
2018-03-20T11:00:16.153Z,2.04
2018-03-20T11:01:16.145Z,2.1
2018-03-20T11:02:16.218Z,2.14
2018-03-20T11:03:16.204Z,2.17
2018-03-20T11:04:16.204Z,2.18
2018-03-20T11:05:16.152Z,2.16
2018-03-20T11:06:16.159Z,2.06
2018-03-20T11:07:16.150Z,2.05
2018-03-20T11:08:16.212Z,2.04
2018-03-20T11:09:16.189Z,2.04
2018-03-20T11:10:16.182Z,2.05
2018-03-20T11:11:16.207Z,1.86
2018-03-20T11:12:16.170Z,1.75
2018-03-20T11:13:16.198Z,1.69
2018-03-20T11:14:16.177Z,1.73
2018-03-20T11:15:16.182Z,1.7
2018-03-20T11:16:16.184Z,1.7
2018-03-20T11:17:16.213Z,1.65
2018-03-20T11:18:16.212Z,1.4
2018-03-20T11:19:16.186Z,1.37
2018-03-20T11:20:16.212Z,1.23
2018-03-20T11:21:16.197Z,0.92
2018-03-20T11:22:16.206Z,0.66
2018-03-20T11:23:16.517Z,0.57
2018-03-20T11:24:16.233Z,0.48
2018-03-20T11:25:16.221Z,0.45
2018-03-20T11:26:16.215Z,0.53
2018-03-20T11:27:16.226Z,0.52
2018-03-20T11:28:16.298Z,0.56
2018-03-20T11:29:16.219Z,0.51
2018-03-20T11:30:16.236Z,0.38
2018-03-20T11:31:16.229Z,0.33
2018-03-20T11:32:16.233Z,0.29
2018-03-20T11:33:16.240Z,0.24
2018-03-20T11:34:16.250Z,0.16
2018-03-20T11:35:16.256Z,0.07
2018-03-20T11:36:16.265Z,0.07
2018-03-20T11:37:16.283Z,0.05
2018-03-20T11:38:16.366Z,0.09
2018-03-20T11:39:16.256Z,0.18
2018-03-20T11:40:16.256Z,0.1
2018-03-20T11:41:16.273Z,0.19
2018-03-20T11:42:16.255Z,0.23
2018-03-20T11:43:16.307Z,0.28
2018-03-20T11:44:16.288Z,0.26
2018-03-20T11:45:16.299Z,0.25
2018-03-20T11:46:16.272Z,0.25
2018-03-20T11:47:16.296Z,0.29
2018-03-20T11:48:16.592Z,0.3
2018-03-20T11:49:16.280Z,0.35
2018-03-20T11:50:16.317Z,0.34
2018-03-20T11:51:16.307Z,0.24
2018-03-20T11:52:16.308Z,0.31
2018-03-20T11:53:16.319Z,0.29
2018-03-20T11:54:16.321Z,0.26
2018-03-20T11:55:16.317Z,0.33
2018-03-20T11:56:16.304Z,0.32
2018-03-20T11:57:16.304Z,0.36
2018-03-20T11:58:16.382Z,0.29
2018-03-20T11:59:16.360Z,0.32
2018-03-20T12:00:16.314Z,0.43
2018-03-20T12:01:16.371Z,0.46
2018-03-20T12:02:16.674Z,0.55
2018-03-20T12:03:16.406Z,0.6
2018-03-20T12:04:16.380Z,0.63
2018-03-20T12:05:16.350Z,0.68
2018-03-20T12:06:16.354Z,0.64
2018-03-20T12:07:16.347Z,0.64
2018-03-20T12:08:16.354Z,0.62
2018-03-20T12:09:16.351Z,0.66
2018-03-20T12:10:16.385Z,0.63
2018-03-20T12:11:16.351Z,0.62
2018-03-20T12:12:16.360Z,0.64
2018-03-20T12:13:16.383Z,0.74
2018-03-20T12:14:16.346Z,0.78
2018-03-20T12:15:16.380Z,0.82
2018-03-20T12:16:16.381Z,0.77
2018-03-20T12:17:16.382Z,0.84
2018-03-20T12:18:16.406Z,0.84
2018-03-20T12:19:16.392Z,0.79
2018-03-20T12:20:16.382Z,0.76
2018-03-20T12:21:16.404Z,0.81
2018-03-20T12:22:16.408Z,0.83
2018-03-20T12:23:16.431Z,0.91
2018-03-20T12:24:16.418Z,0.88
2018-03-20T12:25:17.795Z,0.89
2018-03-20T12:26:16.407Z,0.89
2018-03-20T12:27:16.408Z,0.88
2018-03-20T12:28:16.387Z,0.91
2018-03-20T12:29:16.445Z,1.01
2018-03-20T12:30:16.408Z,1.02
2018-03-20T12:31:16.393Z,1.05
2018-03-20T12:32:16.413Z,0.99
2018-03-20T12:33:16.407Z,1.01
2018-03-20T12:34:16.467Z,1.07
2018-03-20T12:35:16.456Z,1
2018-03-20T12:36:16.438Z,1.06
2018-03-20T12:37:16.447Z,1.09
2018-03-20T12:38:16.434Z,1.17
2018-03-20T12:39:16.460Z,1.25
2018-03-20T12:40:16.432Z,1.28
2018-03-20T12:41:16.454Z,1.33
2018-03-20T12:42:16.444Z,1.19
2018-03-20T12:43:16.453Z,1.18
2018-03-20T12:44:16.486Z,1.11
2018-03-20T12:45:16.466Z,1.13
2018-03-20T12:46:16.451Z,1.15
2018-03-20T12:47:16.479Z,1.16
2018-03-20T12:48:16.472Z,1.2
2018-03-20T12:49:16.469Z,1.28
2018-03-20T12:50:16.477Z,1.26
2018-03-20T12:51:16.473Z,1.27
2018-03-20T12:52:16.494Z,1.26
2018-03-20T12:53:16.511Z,1.32
2018-03-20T12:54:16.461Z,1.35
2018-03-20T12:55:16.524Z,1.43
2018-03-20T12:56:16.485Z,1.49
2018-03-20T12:57:16.471Z,1.57
2018-03-20T12:58:16.478Z,1.56
2018-03-20T12:59:16.484Z,1.55
2018-03-20T13:00:16.508Z,1.53
2018-03-20T13:01:16.529Z,1.59
2018-03-20T13:02:16.510Z,1.61
2018-03-20T13:03:16.602Z,1.57
2018-03-20T13:04:16.534Z,1.54